Time;durP1;ratioP1;P1;durP2;ratioP2;P2;SDS_P1;SDS_P2;PMS_P1;PMS_P2;Temp;Humidity;BMP_temperature;BMP_pressure;BME280_temperature;BME280_humidity;BME280_pressure;Samples;Min_cycle;Max_cycle;Signal;HPM_P1;HPM_P2
2022/04/06 00:00:17;;;;;;;11.93;9.02;;;;;;;9.11;100.00;99307.28;4904840;29;20043;-74
2022/04/06 00:02:43;;;;;;;12.10;8.93;;;;;;;9.02;100.00;99309.25;4912460;29;20033;-75
2022/04/06 00:05:09;;;;;;;11.85;7.93;;;;;;;9.09;100.00;99319.63;4912541;29;20036;-75
2022/04/06 00:07:39;;;;;;;9.98;8.02;;;;;;;9.17;100.00;99312.47;4910427;29;20032;-75
2022/04/06 00:10:07;;;;;;;10.50;7.82;;;;;;;9.18;100.00;99329.97;4912971;29;20032;-75
2022/04/06 00:12:33;;;;;;;9.48;7.97;;;;;;;9.19;100.00;99302.75;4915051;29;20028;-75
2022/04/06 00:14:59;;;;;;;9.60;7.82;;;;;;;9.17;100.00;99303.69;4912366;29;20043;-75
2022/04/06 00:17:24;;;;;;;12.93;10.82;;;;;;;9.14;100.00;99309.88;4908924;29;20522;-75
2022/04/06 00:19:49;;;;;;;13.95;10.73;;;;;;;9.15;100.00;99314.25;4913665;29;20483;-75
2022/04/06 00:22:15;;;;;;;13.07;10.57;;;;;;;9.14;100.00;99311.63;4907916;29;20043;-75
2022/04/06 00:24:40;;;;;;;13.75;11.48;;;;;;;9.16;100.00;99300.16;4913767;29;20043;-75
2022/04/06 00:27:06;;;;;;;17.95;12.20;;;;;;;9.19;100.00;99305.38;4912414;29;20047;-75
2022/04/06 00:29:31;;;;;;;16.45;12.55;;;;;;;9.26;100.00;99297.38;4911906;29;20068;-75
2022/04/06 00:31:56;;;;;;;17.98;12.38;;;;;;;9.26;100.00;99305.25;4912740;29;20025;-75
2022/04/06 00:35:28;;;;;;;20.75;13.68;;;;;;;9.28;100.00;99301.69;4908880;29;20083;-75
2022/04/06 00:37:07;;;;;;;13.88;10.18;;;;;;;9.27;100.00;99302.59;4910067;29;20055;-75
2022/04/06 00:39:33;;;;;;;18.73;12.57;;;;;;;9.28;100.00;99300.84;4913744;29;20032;-75
2022/04/06 00:41:58;;;;;;;18.55;12.40;;;;;;;9.32;100.00;99302.50;4908962;29;20372;-75
2022/04/06 00:44:23;;;;;;;19.10;12.52;;;;;;;9.39;100.00;99297.06;4914109;29;20039;-74
2022/04/06 00:46:49;;;;;;;17.10;12.65;;;;;;;9.42;100.00;99293.50;4907838;29;20051;-75
2022/04/06 00:49:14;;;;;;;16.55;11.40;;;;;;;9.46;100.00;99291.66;4911257;29;20028;-74
2022/04/06 00:51:43;;;;;;;15.82;11.20;;;;;;;9.50;100.00;99294.22;4911644;29;20040;-74
2022/04/06 00:54:12;;;;;;;19.17;11.75;;;;;;;9.53;100.00;99291.50;4909792;29;20502;-75
2022/04/06 00:56:39;;;;;;;15.27;11.35;;;;;;;9.57;100.00;99294.97;4911301;29;20039;-74
2022/04/06 00:59:05;;;;;;;19.70;12.68;;;;;;;9.56;100.00;99295.84;4910714;29;20044;-74
2022/04/06 01:01:30;;;;;;;16.13;11.07;;;;;;;9.51;100.00;99293.31;4911473;29;20040;-74
2022/04/06 01:03:56;;;;;;;12.05;9.07;;;;;;;9.55;100.00;99300.25;4912091;29;20075;-74
2022/04/06 01:06:21;;;;;;;14.25;9.57;;;;;;;9.50;100.00;99304.75;4909675;29;20131;-74
2022/04/06 01:08:47;;;;;;;14.00;9.55;;;;;;;9.48;100.00;99295.13;4922563;29;20051;-74
2022/04/06 01:11:13;;;;;;;12.95;9.43;;;;;;;9.51;100.00;99295.97;4914371;29;20160;-74
2022/04/06 01:13:38;;;;;;;12.50;9.65;;;;;;;9.48;100.00;99295.13;4911768;29;20470;-74
2022/04/06 01:16:04;;;;;;;11.77;8.48;;;;;;;9.45;100.00;99293.44;4911775;29;20059;-74
2022/04/06 01:18:32;;;;;;;9.88;7.28;;;;;;;9.45;100.00;99301.34;4912258;29;20036;-74
2022/04/06 01:20:58;;;;;;;10.60;7.47;;;;;;;9.35;100.00;99290.16;4911592;29;20043;-74
2022/04/06 01:23:24;;;;;;;9.93;7.38;;;;;;;9.28;99.86;99283.28;4919310;29;20040;-74
2022/04/06 01:25:50;;;;;;;9.05;7.45;;;;;;;9.29;99.40;99294.66;4911219;29;20040;-74
2022/04/06 01:28:15;;;;;;;11.63;7.13;;;;;;;9.20;100.00;99283.44;4912264;29;20047;-74
2022/04/06 01:30:41;;;;;;;8.88;6.55;;;;;;;9.20;100.00;99279.94;4912175;29;20043;-74
2022/04/06 01:33:06;;;;;;;10.30;8.57;;;;;;;9.15;100.00;99290.56;4912098;29;20051;-74
2022/04/06 01:35:36;;;;;;;10.15;7.90;;;;;;;9.15;100.00;99293.19;4904908;29;20056;-74
2022/04/06 01:38:01;;;;;;;10.40;8.50;;;;;;;9.11;100.00;99286.22;4912211;29;20042;-74
2022/04/06 01:40:27;;;;;;;10.35;8.50;;;;;;;9.12;100.00;99288.00;4906021;29;20076;-74
2022/04/06 01:42:52;;;;;;;11.43;8.40;;;;;;;9.13;100.00;99288.84;4912528;29;20044;-74
2022/04/06 01:45:17;;;;;;;11.50;8.93;;;;;;;9.10;100.00;99281.88;4911813;29;20036;-75
2022/04/06 01:47:43;;;;;;;12.00;8.90;;;;;;;9.10;100.00;99292.41;4906131;29;20041;-75
2022/04/06 01:52:53;;;;;;;9.00;7.47;;;;;;;9.08;100.00;99275.78;4908884;29;20036;-74
2022/04/06 01:55:19;;;;;;;12.95;10.27;;;;;;;9.02;100.00;99286.44;4910225;29;20068;-74
2022/04/06 01:57:44;;;;;;;11.52;9.35;;;;;;;9.06;100.00;99281.97;4915812;29;20082;-74
2022/04/06 02:00:13;;;;;;;11.45;8.73;;;;;;;9.07;100.00;99276.69;4907274;29;20083;-74
2022/04/06 02:02:45;;;;;;;11.27;9.57;;;;;;;9.10;100.00;99278.38;4912510;29;20036;-74
2022/04/06 02:05:13;;;;;;;12.75;10.88;;;;;;;9.11;100.00;99275.69;4911882;29;20064;-74
2022/04/06 02:07:39;;;;;;;12.77;10.05;;;;;;;9.03;100.00;99272.38;4904348;29;20036;-74
2022/04/06 02:10:05;;;;;;;12.88;10.13;;;;;;;9.06;100.00;99271.44;4912235;29;20512;-74
2022/04/06 02:12:31;;;;;;;14.15;11.27;;;;;;;9.05;100.00;99278.47;4906966;29;20039;-74
2022/04/06 02:14:57;;;;;;;15.65;10.50;;;;;;;9.11;100.00;99272.22;4912509;29;20099;-74
2022/04/06 02:17:22;;;;;;;12.55;10.25;;;;;;;9.09;100.00;99271.38;4912785;29;20028;-74
2022/04/06 02:19:48;;;;;;;14.00;11.30;;;;;;;9.13;100.00;99267.78;4912744;29;20036;-74
2022/04/06 02:22:14;;;;;;;10.82;8.48;;;;;;;9.15;100.00;99271.25;4912256;29;20049;-74
2022/04/06 02:24:39;;;;;;;12.35;10.02;;;;;;;9.17;100.00;99280.88;4909634;29;20039;-74
2022/04/06 02:27:07;;;;;;;13.60;11.23;;;;;;;9.24;100.00;99280.72;4908949;29;20040;-74
2022/04/06 02:29:32;;;;;;;14.18;10.77;;;;;;;9.25;100.00;99267.53;4913445;29;20024;-74
2022/04/06 02:31:57;;;;;;;15.30;11.23;;;;;;;9.24;100.00;99272.84;4911337;29;20032;-74
2022/04/06 02:34:22;;;;;;;16.73;10.73;;;;;;;9.29;100.00;99276.25;4907512;29;20658;-74
2022/04/06 02:36:48;;;;;;;12.77;10.95;;;;;;;9.37;100.00;99269.03;4927275;23;20605;-74
2022/04/06 02:39:13;;;;;;;15.23;11.30;;;;;;;9.44;99.71;99268.00;4924684;29;20032;-74
2022/04/06 02:41:39;;;;;;;16.35;11.25;;;;;;;9.42;99.27;99280.34;4924351;29;20032;-74
2022/04/06 02:44:05;;;;;;;13.77;10.98;;;;;;;9.41;99.45;99268.94;4923905;29;20392;-74
2022/04/06 02:46:31;;;;;;;12.65;11.05;;;;;;;9.40;99.03;99263.69;4922528;29;20054;-74
2022/04/06 02:48:56;;;;;;;14.77;11.52;;;;;;;9.40;99.10;99250.53;4918904;29;20603;-74
2022/04/06 02:51:21;;;;;;;12.00;10.13;;;;;;;9.39;99.09;99259.34;4922990;29;20032;-74
2022/04/06 02:53:47;;;;;;;11.85;10.50;;;;;;;9.44;98.44;99263.59;4922094;29;20452;-74
2022/04/06 02:56:12;;;;;;;11.63;10.10;;;;;;;9.46;97.99;99260.94;4926165;29;20395;-74
2022/04/06 02:58:37;;;;;;;11.85;9.27;;;;;;;9.43;98.27;99264.53;4919163;29;20048;-74
2022/04/06 03:01:03;;;;;;;12.55;10.20;;;;;;;9.41;97.78;99268.94;4919366;29;20036;-74
2022/04/06 03:03:28;;;;;;;12.77;10.60;;;;;;;9.37;98.30;99263.78;4923339;29;20074;-74
2022/04/06 03:05:53;;;;;;;14.60;10.82;;;;;;;9.47;98.65;99267.09;4924174;29;20082;-74
2022/04/06 03:08:20;;;;;;;14.02;11.35;;;;;;;9.50;97.94;99267.00;4922558;29;20043;-74
2022/04/06 03:10:45;;;;;;;13.05;10.35;;;;;;;9.56;97.87;99266.88;4922020;29;20515;-74
2022/04/06 03:13:10;;;;;;;12.55;10.50;;;;;;;9.53;97.03;99264.31;4925510;29;20116;-74
2022/04/06 03:15:36;;;;;;;13.68;10.35;;;;;;;9.52;97.15;99270.47;4926342;29;20107;-74
2022/04/06 03:18:04;;;;;;;12.88;10.00;;;;;;;9.56;96.92;99265.13;4928073;29;20070;-74
2022/04/06 03:20:29;;;;;;;12.55;9.55;;;;;;;9.50;96.79;99259.97;4916946;29;20027;-74
2022/04/06 03:22:55;;;;;;;14.98;9.68;;;;;;;9.51;96.63;99258.19;4920436;29;20087;-74
2022/04/06 03:25:20;;;;;;;13.02;9.82;;;;;;;9.52;97.13;99265.22;4926743;29;20043;-73
2022/04/06 03:27:46;;;;;;;12.45;9.43;;;;;;;9.55;96.82;99271.28;4922147;29;20038;-73
2022/04/06 03:30:11;;;;;;;13.73;8.75;;;;;;;9.54;97.13;99264.28;4928297;29;20055;-74
2022/04/06 03:32:37;;;;;;;12.27;9.43;;;;;;;9.57;96.74;99260.72;4924398;29;20036;-74
2022/04/06 03:35:04;;;;;;;11.98;9.07;;;;;;;9.55;97.30;99263.38;4924957;29;20032;-73
2022/04/06 03:37:30;;;;;;;11.55;10.10;;;;;;;9.60;96.82;99258.00;4918448;29;20067;-73
2022/04/06 03:39:55;;;;;;;12.68;9.57;;;;;;;9.61;96.79;99260.59;4915932;29;20058;-74
2022/04/06 03:42:20;;;;;;;13.63;10.18;;;;;;;9.60;96.92;99256.22;4920541;29;20119;-74
2022/04/06 03:44:46;;;;;;;12.63;9.70;;;;;;;9.62;97.04;99257.06;4912481;29;20040;-74
2022/04/06 03:47:11;;;;;;;12.68;10.52;;;;;;;9.63;96.29;99261.44;4914599;29;20044;-74
2022/04/06 03:49:37;;;;;;;14.20;10.18;;;;;;;9.57;95.82;99271.25;4913628;29;20054;-74
2022/04/06 03:52:02;;;;;;;11.82;9.35;;;;;;;9.64;94.99;99265.81;4924372;29;20030;-74
2022/04/06 03:54:27;;;;;;;13.85;9.50;;;;;;;9.70;94.52;99271.84;4919434;29;20080;-74
2022/04/06 03:56:54;;;;;;;15.88;10.32;;;;;;;9.61;94.53;99265.00;4924331;29;20064;-74
2022/04/06 03:59:19;;;;;;;12.30;9.23;;;;;;;9.55;94.23;99271.28;4921747;29;20063;-73
2022/04/06 04:01:45;;;;;;;14.25;9.93;;;;;;;9.53;94.24;99272.22;4924416;29;20064;-76
2022/04/06 04:04:10;;;;;;;11.65;9.18;;;;;;;9.54;95.05;99280.09;4914163;29;20036;-75
2022/04/06 04:06:36;;;;;;;16.13;9.73;;;;;;;9.60;95.29;99276.44;4915562;29;20515;-74
2022/04/06 04:09:03;;;;;;;12.82;9.35;;;;;;;9.59;95.69;99287.91;4918969;29;20420;-74
2022/04/06 04:11:29;;;;;;;11.52;9.38;;;;;;;9.62;96.25;99278.16;4922578;29;20087;-73
2022/04/06 04:13:54;;;;;;;14.25;9.93;;;;;;;9.64;95.91;99286.00;4918701;29;20525;-74
2022/04/06 04:16:19;;;;;;;20.08;10.30;;;;;;;9.68;95.91;99278.91;4917001;29;20040;-74
2022/04/06 04:18:45;;;;;;;14.02;11.40;;;;;;;9.63;96.37;99279.88;4915884;29;20036;-73
2022/04/06 04:23:54;;;;;;;16.48;13.38;;;;;;;9.69;96.94;99288.53;4912823;29;20072;-74
2022/04/06 04:26:19;;;;;;;18.60;13.75;;;;;;;9.72;96.84;99292.00;4913232;29;20075;-74
2022/04/06 04:28:45;;;;;;;15.18;11.52;;;;;;;9.75;96.60;99288.41;4914139;29;20063;-74
2022/04/06 04:31:10;;;;;;;15.90;11.63;;;;;;;9.69;96.26;99305.19;4918489;29;20046;-73
2022/04/06 04:33:36;;;;;;;16.00;12.65;;;;;;;9.64;95.60;99292.16;4916619;29;20454;-74
2022/04/06 04:36:02;;;;;;;14.13;11.40;;;;;;;9.65;95.88;99295.66;4924474;29;20047;-74
2022/04/06 04:38:27;;;;;;;14.75;10.15;;;;;;;9.60;96.19;99294.88;4926462;29;20418;-73
2022/04/06 04:40:52;;;;;;;14.20;10.48;;;;;;;9.55;95.47;99300.25;4923847;29;20028;-73
2022/04/06 04:43:18;;;;;;;11.50;9.02;;;;;;;9.53;95.62;99304.66;4916081;29;20028;-74
2022/04/06 04:45:43;;;;;;;15.00;9.77;;;;;;;9.50;94.99;99304.75;4917859;29;20048;-74
2022/04/06 04:48:09;;;;;;;16.95;10.10;;;;;;;9.52;95.34;99307.34;4920583;29;20186;-74
2022/04/06 04:50:34;;;;;;;12.20;9.63;;;;;;;9.47;94.65;99304.81;4922600;29;20128;-74
2022/04/06 04:52:59;;;;;;;18.33;10.73;;;;;;;9.49;94.76;99310.06;4923781;29;20035;-74
2022/04/06 04:55:24;;;;;;;14.10;10.20;;;;;;;9.41;95.24;99291.78;4925691;29;20119;-76
2022/04/06 04:57:50;;;;;;;17.05;11.02;;;;;;;9.35;95.65;99294.53;4921744;29;20119;-73
2022/04/06 05:00:16;;;;;;;14.98;9.88;;;;;;;9.30;95.55;99285.84;4922821;29;20032;-73
2022/04/06 05:02:41;;;;;;;19.83;11.93;;;;;;;9.29;95.29;99287.63;4921349;29;20043;-73
2022/04/06 05:05:08;;;;;;;15.02;10.00;;;;;;;9.32;95.60;99289.34;4925917;29;20039;-73
2022/04/06 05:07:37;;;;;;;16.35;9.73;;;;;;;9.33;94.90;99293.72;4921361;29;20035;-73
2022/04/06 05:10:12;;;;;;;14.05;9.40;;;;;;;9.31;95.41;99290.25;4925070;29;20128;-73
2022/04/06 05:12:37;;;;;;;15.27;10.23;;;;;;;9.32;95.15;99297.22;4920716;29;20046;-73
2022/04/06 05:15:04;;;;;;;17.25;10.55;;;;;;;9.32;95.10;99290.19;4924773;29;20122;-74
2022/04/06 05:17:30;;;;;;;14.88;9.50;;;;;;;9.42;95.11;99296.13;4922302;29;20048;-73
2022/04/06 05:19:55;;;;;;;15.50;9.35;;;;;;;9.43;94.70;99287.31;4919683;29;20124;-73
2022/04/06 05:22:21;;;;;;;11.38;7.63;;;;;;;9.46;93.89;99289.03;4925145;29;20035;-73
2022/04/06 05:24:46;;;;;;;15.70;9.82;;;;;;;9.52;93.45;99288.91;4925114;29;20051;-73
2022/04/06 05:27:12;;;;;;;14.15;8.70;;;;;;;9.51;92.79;99301.22;4923487;29;20043;-73
2022/04/06 05:29:38;;;;;;;12.95;7.88;;;;;;;9.56;92.11;99291.47;4926044;29;20036;-73
2022/04/06 05:32:03;;;;;;;15.52;8.68;;;;;;;9.59;92.51;99301.94;4923274;29;20127;-73
2022/04/06 05:34:29;;;;;;;13.05;9.00;;;;;;;9.62;91.75;99303.63;4924500;29;20032;-73
2022/04/06 05:36:55;;;;;;;11.13;8.23;;;;;;;9.63;91.81;99308.84;4925121;29;20483;-73
2022/04/06 05:39:20;;;;;;;13.10;8.15;;;;;;;9.71;90.63;99315.72;4923198;29;20130;-73
2022/04/06 05:41:46;;;;;;;12.10;8.32;;;;;;;9.76;90.33;99306.81;4925559;29;20079;-73
2022/04/06 05:44:11;;;;;;;14.27;8.77;;;;;;;9.81;89.34;99311.97;4924014;29;20595;-73
2022/04/06 05:46:37;;;;;;;10.40;8.30;;;;;;;9.88;89.71;99310.94;4920718;29;20039;-73
2022/04/06 05:49:02;;;;;;;14.95;9.20;;;;;;;9.90;89.13;99309.13;4924854;29;20071;-73
2022/04/06 05:51:27;;;;;;;15.38;8.65;;;;;;;9.95;88.92;99312.53;4922527;29;20027;-73
2022/04/06 05:53:53;;;;;;;17.15;11.98;;;;;;;10.06;89.61;99307.88;4921485;29;20522;-73
2022/04/06 05:56:18;;;;;;;13.70;9.10;;;;;;;10.17;90.22;99318.16;4922652;29;20036;-73
2022/04/06 05:58:44;;;;;;;11.45;8.30;;;;;;;10.12;88.75;99313.91;4922674;29;20044;-73
2022/04/06 06:01:09;;;;;;;13.77;9.05;;;;;;;10.21;88.59;99317.19;4918580;29;20055;-73
2022/04/06 06:03:35;;;;;;;13.98;9.70;;;;;;;10.23;87.85;99322.44;4919980;29;20708;-73
2022/04/06 06:06:00;;;;;;;11.70;8.85;;;;;;;10.24;87.15;99324.16;4922044;29;20044;-73
2022/04/06 06:08:26;;;;;;;13.50;9.98;;;;;;;10.33;87.82;99323.97;4924060;29;20035;-73
2022/04/06 06:10:51;;;;;;;14.15;11.25;;;;;;;10.40;87.32;99329.94;4902012;29;20044;-73
2022/04/06 06:13:16;;;;;;;13.75;11.43;;;;;;;10.42;87.83;99334.28;4924148;29;20043;-73
2022/04/06 06:15:42;;;;;;;18.65;11.20;;;;;;;10.41;87.57;99335.19;4923459;29;20123;-73
2022/04/06 06:18:08;;;;;;;18.02;11.65;;;;;;;10.46;88.41;99335.09;4924477;29;20047;-73
2022/04/06 06:20:34;;;;;;;20.77;14.90;;;;;;;10.56;88.42;99346.25;4919583;29;20048;-73
2022/04/06 06:22:59;;;;;;;21.08;14.20;;;;;;;10.64;88.06;99339.91;4924970;29;20079;-73
2022/04/06 06:25:25;;;;;;;22.27;15.00;;;;;;;10.78;87.79;99336.91;4919404;29;20040;-73
2022/04/06 06:27:50;;;;;;;19.30;13.65;;;;;;;10.92;88.16;99333.91;4922289;29;20047;-73
2022/04/06 06:30:16;;;;;;;16.83;12.63;;;;;;;10.94;87.41;99326.81;4917417;29;20122;-73
2022/04/06 06:32:42;;;;;;;26.27;17.48;;;;;;;11.01;86.84;99333.66;4922525;29;20051;-73
2022/04/06 06:35:08;;;;;;;12.63;10.00;;;;;;;11.11;85.79;99335.16;4921549;29;20047;-73
2022/04/06 06:37:35;;;;;;;11.23;9.15;;;;;;;11.04;85.52;99343.28;4919604;29;20036;-73
2022/04/06 06:40:00;;;;;;;9.90;8.23;;;;;;;11.09;84.38;99333.47;4921429;29;20071;-73
2022/04/06 06:42:26;;;;;;;11.18;9.00;;;;;;;11.19;84.59;99327.03;4923006;29;20068;-73
2022/04/06 06:44:52;;;;;;;11.25;9.10;;;;;;;11.26;83.91;99332.97;4925305;29;20748;-73
2022/04/06 06:47:17;;;;;;;11.98;8.43;;;;;;;11.27;82.52;99324.16;4924965;29;20047;-73
2022/04/06 06:49:46;;;;;;;11.18;8.98;;;;;;;11.23;82.75;99327.78;4928006;29;20062;-73
2022/04/06 06:52:13;;;;;;;11.13;8.70;;;;;;;11.33;82.30;99319.56;4928009;29;20032;-73
2022/04/06 06:54:39;;;;;;;10.88;8.35;;;;;;;11.43;82.25;99327.22;4926067;29;20099;-73
2022/04/06 06:57:05;;;;;;;11.60;8.23;;;;;;;11.43;81.69;99327.22;4927241;29;20118;-73
2022/04/06 06:59:30;;;;;;;10.95;8.70;;;;;;;11.30;81.38;99330.22;4927016;29;20036;-73
2022/04/06 07:01:55;;;;;;;11.07;8.30;;;;;;;11.25;81.59;99326.84;4926406;29;20024;-73
2022/04/06 07:04:24;;;;;;;12.25;8.65;;;;;;;11.29;82.02;99317.94;4928730;29;20400;-73
2022/04/06 07:06:50;;;;;;;12.65;8.55;;;;;;;11.32;81.72;99317.84;4921895;29;20067;-73
2022/04/06 07:09:16;;;;;;;12.75;8.13;;;;;;;11.30;80.92;99324.06;4925333;29;20516;-73
2022/04/06 07:11:42;;;;;;;10.52;7.60;;;;;;;11.18;80.97;99319.97;4926062;29;20079;-73
2022/04/06 07:14:07;;;;;;;10.98;8.15;;;;;;;11.22;80.92;99332.22;4928390;29;20044;-73
2022/04/06 07:16:33;;;;;;;12.32;7.60;;;;;;;11.21;80.56;99326.94;4925478;29;20451;-73
2022/04/06 07:18:58;;;;;;;12.55;7.15;;;;;;;11.07;80.14;99322.06;4927403;29;20047;-73
2022/04/06 07:21:23;;;;;;;7.97;6.00;;;;;;;11.17;80.91;99334.09;4926819;29;20040;-73
2022/04/06 07:23:49;;;;;;;10.52;6.68;;;;;;;11.14;80.20;99331.56;4926048;29;20456;-73
2022/04/06 07:26:16;;;;;;;10.13;5.63;;;;;;;11.16;79.75;99327.97;4924090;29;20051;-73
2022/04/06 07:28:44;;;;;;;11.38;6.50;;;;;;;11.12;79.88;99328.09;4922961;29;20415;-73
2022/04/06 07:31:10;;;;;;;10.95;5.63;;;;;;;11.04;80.20;99323.00;4925917;29;20048;-73
2022/04/06 07:33:36;;;;;;;10.20;7.25;;;;;;;11.04;80.49;99320.38;4924522;29;20048;-73
2022/04/06 07:36:04;;;;;;;9.32;5.65;;;;;;;11.14;79.79;99305.16;4928008;29;20044;-73
2022/04/06 07:38:29;;;;;;;14.90;8.00;;;;;;;11.11;79.66;99319.31;4926102;29;20059;-73
2022/04/06 07:40:55;;;;;;;11.02;6.75;;;;;;;11.10;79.35;99307.00;4926139;29;20523;-73
2022/04/06 07:43:20;;;;;;;10.55;5.78;;;;;;;11.16;79.55;99309.47;4927593;29;20031;-73
2022/04/06 07:45:46;;;;;;;9.85;5.88;;;;;;;11.19;79.23;99312.03;4920237;29;20059;-73
2022/04/06 07:48:11;;;;;;;9.52;5.68;;;;;;;11.28;78.86;99312.69;4927286;29;20036;-73
2022/04/06 07:50:36;;;;;;;8.93;5.63;;;;;;;11.28;78.68;99305.63;4922658;29;20047;-73
2022/04/06 07:53:02;;;;;;;9.27;5.65;;;;;;;11.36;78.90;99311.53;4926674;29;20032;-74
2022/04/06 07:55:27;;;;;;;9.45;5.40;;;;;;;11.41;78.35;99317.56;4918479;29;20044;-73
2022/04/06 07:57:53;;;;;;;7.10;5.22;;;;;;;11.46;78.04;99316.56;4922465;29;20043;-73
2022/04/06 08:00:19;;;;;;;9.85;5.68;;;;;;;11.48;78.67;99312.13;4926955;29;20042;-73
2022/04/06 08:02:46;;;;;;;7.85;5.18;;;;;;;11.51;77.50;99309.38;4926245;29;20040;-73
2022/04/06 08:05:11;;;;;;;8.55;5.28;;;;;;;11.52;77.36;99311.09;4924884;29;20439;-73
2022/04/06 08:07:39;;;;;;;9.90;6.18;;;;;;;11.52;77.22;99308.44;4924475;29;20040;-73
2022/04/06 08:10:07;;;;;;;7.93;5.95;;;;;;;11.61;77.83;99311.69;4926731;29;20040;-73
2022/04/06 08:12:33;;;;;;;8.45;5.80;;;;;;;11.55;77.61;99303.06;4926152;29;20039;-73
2022/04/06 08:14:58;;;;;;;9.57;5.88;;;;;;;11.57;76.94;99309.19;4924610;29;20048;-73
2022/04/06 08:17:24;;;;;;;10.63;6.18;;;;;;;11.68;77.37;99320.28;4927640;29;20495;-73
2022/04/06 08:19:49;;;;;;;9.68;6.10;;;;;;;11.70;76.77;99313.19;4923289;29;20498;-73
2022/04/06 08:22:15;;;;;;;8.18;5.15;;;;;;;11.82;76.16;99318.13;4924947;29;20431;-73
2022/04/06 08:24:41;;;;;;;9.40;5.72;;;;;;;11.76;76.91;99313.03;4912138;29;20095;-73
2022/04/06 08:27:06;;;;;;;8.82;5.78;;;;;;;11.92;76.65;99317.84;4943521;23;20043;-73
2022/04/06 08:29:31;;;;;;;9.55;5.75;;;;;;;11.95;75.82;99323.94;4931047;29;20119;-76
2022/04/06 08:31:57;;;;;;;10.90;6.18;;;;;;;11.86;75.33;99318.91;4929267;29;20801;-77
2022/04/06 08:34:22;;;;;;;8.90;6.43;;;;;;;11.93;75.91;99319.59;4931600;29;20032;-77
2022/04/06 08:36:47;;;;;;;9.70;5.88;;;;;;;11.97;75.88;99310.63;4932662;29;20065;-77
2022/04/06 08:39:13;;;;;;;7.35;5.43;;;;;;;12.00;75.21;99315.84;4935065;29;20065;-77
2022/04/06 08:41:38;;;;;;;10.02;5.82;;;;;;;12.08;74.90;99308.53;4935367;29;20040;-76
2022/04/06 08:44:04;;;;;;;9.82;6.65;;;;;;;12.18;74.37;99319.66;4936549;29;20146;-77
2022/04/06 08:46:36;;;;;;;9.30;6.22;;;;;;;12.31;74.41;99317.50;4936010;29;20059;-77
2022/04/06 08:49:03;;;;;;;10.25;5.78;;;;;;;12.44;73.78;99310.88;4929076;29;20434;-77
2022/04/06 08:51:29;;;;;;;9.30;6.25;;;;;;;12.53;73.16;99318.53;4930384;29;20040;-77
2022/04/06 08:53:55;;;;;;;7.88;5.95;;;;;;;12.60;71.66;99317.41;4934788;29;20036;-77
2022/04/06 08:56:22;;;;;;;9.70;5.68;;;;;;;12.63;71.75;99319.09;4933443;29;20028;-76
2022/04/06 08:58:47;;;;;;;8.82;6.47;;;;;;;12.78;71.02;99315.91;4933652;29;20050;-76
2022/04/06 09:01:13;;;;;;;9.68;6.70;;;;;;;12.68;71.07;99315.38;4936957;29;20044;-75
2022/04/06 09:03:39;;;;;;;11.48;7.28;;;;;;;12.87;71.54;99325.31;4934952;29;20043;-77
2022/04/06 09:06:10;;;;;;;9.77;5.90;;;;;;;12.87;69.44;99325.31;4931616;29;20043;-77
2022/04/06 09:08:47;;;;;;;9.38;5.30;;;;;;;12.85;68.46;99316.56;4932486;29;20056;-77
2022/04/06 09:11:22;;;;;;;9.60;5.88;;;;;;;12.77;68.84;99306.25;4934304;29;20035;-76
2022/04/06 09:13:57;;;;;;;9.55;5.55;;;;;;;12.76;67.92;99306.28;4934634;29;20498;-77
2022/04/06 09:16:28;;;;;;;10.13;5.75;;;;;;;12.91;68.55;99305.75;4934605;29;20044;-77
2022/04/06 09:18:54;;;;;;;9.23;5.07;;;;;;;13.06;67.89;99299.91;4935631;29;20035;-77
2022/04/06 09:21:19;;;;;;;7.82;5.50;;;;;;;12.94;67.81;99310.94;4931044;29;20422;-76
2022/04/06 09:23:48;;;;;;;8.95;5.28;;;;;;;13.07;66.99;99306.06;4933113;29;20035;-77
2022/04/06 09:26:16;;;;;;;8.77;5.55;;;;;;;13.20;66.67;99302.06;4931195;29;20122;-76
2022/04/06 09:28:44;;;;;;;8.73;5.22;;;;;;;13.27;65.80;99300.94;4933060;29;20046;-76
2022/04/06 09:31:16;;;;;;;8.18;5.65;;;;;;;13.51;65.56;99296.50;4934079;29;20046;-77
2022/04/06 09:33:54;;;;;;;9.00;5.45;;;;;;;13.61;65.20;99291.72;4931380;29;20499;-77
2022/04/06 09:36:20;;;;;;;8.50;5.18;;;;;;;13.93;65.03;99285.16;4933808;29;20514;-76
2022/04/06 09:38:51;;;;;;;9.43;4.60;;;;;;;14.01;62.25;99290.16;4933836;29;20059;-77
2022/04/06 09:41:18;;;;;;;9.27;5.30;;;;;;;14.05;62.24;99290.94;4933198;29;20696;-77
2022/04/06 09:43:44;;;;;;;9.15;4.60;;;;;;;14.07;61.81;99283.75;4934152;29;20043;-77
2022/04/06 09:49:20;;;;;;;8.35;4.57;;;;;;;14.15;61.22;99279.03;4931475;29;20039;-76
2022/04/06 09:51:50;;;;;;;8.90;4.82;;;;;;;14.01;61.60;99271.59;4944632;29;20534;-75
2022/04/06 09:54:16;;;;;;;8.93;4.95;;;;;;;14.17;60.18;99269.19;4933778;29;20036;-76
2022/04/06 09:56:44;;;;;;;8.48;4.40;;;;;;;14.09;59.72;99272.16;4933643;29;20119;-75
2022/04/06 09:59:13;;;;;;;10.35;4.97;;;;;;;14.06;60.33;99271.41;4928958;29;20048;-77
2022/04/06 10:01:45;;;;;;;10.35;4.63;;;;;;;14.23;60.21;99271.59;4933449;29;20032;-76
2022/04/06 10:04:12;;;;;;;8.20;4.90;;;;;;;14.25;60.16;99261.78;4934287;29;20397;-77
2022/04/06 10:06:39;;;;;;;7.53;4.88;;;;;;;14.40;58.53;99250.50;4932737;29;20082;-77
2022/04/06 10:09:10;;;;;;;7.80;4.80;;;;;;;14.38;60.14;99255.06;4933685;29;20058;-76
2022/04/06 10:11:37;;;;;;;8.10;5.22;;;;;;;14.35;59.75;99255.16;4934063;29;20046;-77
2022/04/06 10:14:05;;;;;;;7.13;4.80;;;;;;;14.35;60.21;99252.50;4940226;29;20047;-75
2022/04/06 10:16:37;;;;;;;9.00;4.80;;;;;;;14.10;60.49;99257.13;4930511;29;20071;-77
2022/04/06 10:19:06;;;;;;;8.25;5.10;;;;;;;13.88;60.19;99251.81;4928837;29;20040;-77
2022/04/06 10:21:53;;;;;;;8.00;4.60;;;;;;;13.80;61.05;99245.00;4936782;29;20430;-77
2022/04/06 10:24:24;;;;;;;7.95;4.55;;;;;;;13.61;61.11;99249.31;4935106;29;20630;-77
2022/04/06 10:27:15;;;;;;;9.40;5.18;;;;;;;13.48;61.83;99242.78;4936119;29;20094;-76
2022/04/06 10:30:05;;;;;;;9.20;5.45;;;;;;;13.41;61.96;99242.13;4934819;29;20043;-76
2022/04/06 10:32:35;;;;;;;8.60;4.93;;;;;;;13.23;60.94;99242.78;4934650;29;20122;-77
2022/04/06 10:35:17;;;;;;;10.07;5.38;;;;;;;13.11;61.33;99244.97;4933799;29;20019;-77
2022/04/06 10:37:58;;;;;;;7.20;4.72;;;;;;;13.12;61.87;99241.41;4934582;29;20040;-77
2022/04/06 10:40:44;;;;;;;7.25;4.18;;;;;;;13.19;60.62;99230.59;4935434;29;20047;-77
2022/04/06 10:43:36;;;;;;;8.55;4.93;;;;;;;13.31;60.49;99238.13;4935230;29;20040;-77
2022/04/06 10:46:06;;;;;;;8.23;4.07;;;;;;;13.55;60.66;99245.13;4936469;29;20095;-77
2022/04/06 10:48:31;;;;;;;9.63;5.25;;;;;;;13.82;60.35;99237.84;4933441;29;20039;-77
2022/04/06 10:51:30;;;;;;;7.38;4.75;;;;;;;14.13;59.84;99236.63;4936826;29;20162;-77
2022/04/06 10:53:56;;;;;;;6.85;4.13;;;;;;;14.34;58.60;99234.84;4936773;29;20047;-77
2022/04/06 10:56:22;;;;;;;7.45;4.28;;;;;;;14.15;58.84;99223.31;4937268;29;20039;-77
2022/04/06 10:58:53;;;;;;;7.18;4.65;;;;;;;14.17;59.01;99222.31;4936671;29;20055;-77
2022/04/06 11:01:26;;;;;;;10.47;4.00;;;;;;;14.17;58.59;99217.00;4937287;29;20046;-77
2022/04/06 11:04:17;;;;;;;7.72;4.13;;;;;;;14.58;57.45;99222.34;4934205;29;20122;-76
2022/04/06 11:06:48;;;;;;;8.10;3.97;;;;;;;14.83;56.31;99218.66;4934304;29;20047;-77
2022/04/06 11:12:14;;;;;;;7.95;3.88;;;;;;;15.14;53.82;99212.78;4933739;29;20043;-77
2022/04/06 11:14:41;;;;;;;6.63;3.63;;;;;;;15.06;51.90;99228.22;4936383;29;20118;-77
2022/04/06 11:17:34;;;;;;;6.43;3.72;;;;;;;14.83;52.81;99208.88;4936549;29;20039;-77
2022/04/06 11:20:02;;;;;;;6.25;3.65;;;;;;;14.70;53.09;99205.03;4930761;29;20467;-76
2022/04/06 11:22:28;;;;;;;5.85;3.28;;;;;;;14.79;53.67;99198.44;4936146;29;20398;-76
2022/04/06 11:24:56;;;;;;;7.90;4.25;;;;;;;14.89;52.02;99205.94;4936479;29;20042;-77
2022/04/06 11:27:30;;;;;;;5.93;3.10;;;;;;;14.88;51.68;99204.22;4934734;29;20122;-77
2022/04/06 11:30:13;;;;;;;6.72;3.15;;;;;;;15.13;50.92;99195.13;4933060;29;20047;-77
2022/04/06 11:32:45;;;;;;;7.75;2.80;;;;;;;15.32;49.26;99203.94;4932272;29;20136;-77
2022/04/06 11:35:11;;;;;;;7.50;3.70;;;;;;;15.14;48.23;99196.84;4935190;29;20052;-76
2022/04/06 11:37:41;;;;;;;8.35;3.30;;;;;;;15.27;48.51;99192.69;4934636;29;20043;-77